sensor_id;sensor_type;location;lat;lon;timestamp;temperature;humidity
27633;DHT22;15046;50.930;13.334;2023-01-10T00:01:35;5.20;99.90
27633;DHT22;15046;50.930;13.334;2023-01-10T00:04:01;5.20;99.90
27633;DHT22;15046;50.930;13.334;2023-01-10T00:06:27;5.20;99.90
27633;DHT22;15046;50.930;13.334;2023-01-10T00:08:53;5.20;99.90
27633;DHT22;15046;50.930;13.334;2023-01-10T00:11:18;5.20;99.90
27633;DHT22;15046;50.930;13.334;2023-01-10T00:14:03;5.30;99.90
27633;DHT22;15046;50.930;13.334;2023-01-10T00:16:28;5.30;99.90
27633;DHT22;15046;50.930;13.334;2023-01-10T00:18:54;5.30;99.90
27633;DHT22;15046;50.930;13.334;2023-01-10T00:21:20;5.30;99.90
27633;DHT22;15046;50.930;13.334;2023-01-10T00:23:45;5.30;99.90
27633;DHT22;15046;50.930;13.334;2023-01-10T00:26:13;5.30;99.90
27633;DHT22;15046;50.930;13.334;2023-01-10T00:28:39;5.30;99.90
27633;DHT22;15046;50.930;13.334;2023-01-10T00:31:05;5.30;99.90
27633;DHT22;15046;50.930;13.334;2023-01-10T00:33:37;5.30;99.90
27633;DHT22;15046;50.930;13.334;2023-01-10T00:36:05;5.30;99.90
27633;DHT22;15046;50.930;13.334;2023-01-10T00:38:32;5.30;99.90
27633;DHT22;15046;50.930;13.334;2023-01-10T00:40:58;5.30;99.90
27633;DHT22;15046;50.930;13.334;2023-01-10T00:43:24;5.30;99.90
27633;DHT22;15046;50.930;13.334;2023-01-10T00:46:13;5.30;99.90
27633;DHT22;15046;50.930;13.334;2023-01-10T00:48:39;5.30;99.90
27633;DHT22;15046;50.930;13.334;2023-01-10T00:51:05;5.30;99.90
27633;DHT22;15046;50.930;13.334;2023-01-10T00:53:31;5.30;99.90
27633;DHT22;15046;50.930;13.334;2023-01-10T00:55:57;5.30;99.90
27633;DHT22;15046;50.930;13.334;2023-01-10T00:58:23;5.30;99.90
27633;DHT22;15046;50.930;13.334;2023-01-10T01:00:48;5.30;99.90
27633;DHT22;15046;50.930;13.334;2023-01-10T01:03:16;5.30;99.90
27633;DHT22;15046;50.930;13.334;2023-01-10T01:05:43;5.30;99.90
27633;DHT22;15046;50.930;13.334;2023-01-10T01:08:10;5.30;99.90
27633;DHT22;15046;50.930;13.334;2023-01-10T01:10:36;5.30;99.90
27633;DHT22;15046;50.930;13.334;2023-01-10T01:13:17;5.30;99.90
27633;DHT22;15046;50.930;13.334;2023-01-10T01:15:43;5.30;99.90
27633;DHT22;15046;50.930;13.334;2023-01-10T01:18:12;5.30;99.90
27633;DHT22;15046;50.930;13.334;2023-01-10T01:20:39;5.30;99.90
27633;DHT22;15046;50.930;13.334;2023-01-10T01:23:05;5.30;99.90
27633;DHT22;15046;50.930;13.334;2023-01-10T01:25:31;5.30;99.90
27633;DHT22;15046;50.930;13.334;2023-01-10T01:27:56;5.20;99.90
27633;DHT22;15046;50.930;13.334;2023-01-10T01:30:22;5.20;99.90
27633;DHT22;15046;50.930;13.334;2023-01-10T01:32:48;5.20;99.90
27633;DHT22;15046;50.930;13.334;2023-01-10T01:35:15;5.20;99.90
27633;DHT22;15046;50.930;13.334;2023-01-10T01:37:42;5.20;99.90
27633;DHT22;15046;50.930;13.334;2023-01-10T01:40:19;5.20;99.90
27633;DHT22;15046;50.930;13.334;2023-01-10T01:42:46;5.20;99.90
27633;DHT22;15046;50.930;13.334;2023-01-10T01:45:29;5.20;99.90
27633;DHT22;15046;50.930;13.334;2023-01-10T01:48:18;5.20;99.90
27633;DHT22;15046;50.930;13.334;2023-01-10T01:53:41;5.20;99.90
27633;DHT22;15046;50.930;13.334;2023-01-10T02:01:14;5.10;99.90
27633;DHT22;15046;50.930;13.334;2023-01-10T02:03:42;5.10;99.90
27633;DHT22;15046;50.930;13.334;2023-01-10T02:06:09;5.10;99.90
27633;DHT22;15046;50.930;13.334;2023-01-10T02:08:38;5.20;99.90
27633;DHT22;15046;50.930;13.334;2023-01-10T02:11:09;5.20;99.90
27633;DHT22;15046;50.930;13.334;2023-01-10T02:13:40;5.10;99.90
27633;DHT22;15046;50.930;13.334;2023-01-10T02:16:07;5.10;99.90
27633;DHT22;15046;50.930;13.334;2023-01-10T02:18:35;5.10;99.90
27633;DHT22;15046;50.930;13.334;2023-01-10T02:21:32;5.10;99.90
27633;DHT22;15046;50.930;13.334;2023-01-10T02:27:22;5.10;99.90
27633;DHT22;15046;50.930;13.334;2023-01-10T02:33:09;5.10;99.90
27633;DHT22;15046;50.930;13.334;2023-01-10T02:35:32;5.10;99.90
27633;DHT22;15046;50.930;13.334;2023-01-10T02:43:49;5.10;99.90
27633;DHT22;15046;50.930;13.334;2023-01-10T02:46:23;5.10;99.90
27633;DHT22;15046;50.930;13.334;2023-01-10T02:48:52;5.10;99.90
27633;DHT22;15046;50.930;13.334;2023-01-10T02:51:21;5.00;99.90
27633;DHT22;15046;50.930;13.334;2023-01-10T02:53:54;5.00;99.90
27633;DHT22;15046;50.930;13.334;2023-01-10T02:56:28;5.00;99.90
27633;DHT22;15046;50.930;13.334;2023-01-10T03:01:57;5.00;99.90
27633;DHT22;15046;50.930;13.334;2023-01-10T03:05:00;5.00;99.90
27633;DHT22;15046;50.930;13.334;2023-01-10T03:10:29;4.90;99.90
27633;DHT22;15046;50.930;13.334;2023-01-10T03:13:18;4.90;99.90
27633;DHT22;15046;50.930;13.334;2023-01-10T03:15:47;4.90;99.90
27633;DHT22;15046;50.930;13.334;2023-01-10T03:18:19;4.90;99.90
27633;DHT22;15046;50.930;13.334;2023-01-10T03:20:48;5.00;99.90
27633;DHT22;15046;50.930;13.334;2023-01-10T03:23:16;5.00;99.90
27633;DHT22;15046;50.930;13.334;2023-01-10T03:25:44;4.90;99.90
27633;DHT22;15046;50.930;13.334;2023-01-10T03:28:18;5.00;99.90
27633;DHT22;15046;50.930;13.334;2023-01-10T03:31:01;5.00;99.90
27633;DHT22;15046;50.930;13.334;2023-01-10T03:33:30;5.00;99.90
27633;DHT22;15046;50.930;13.334;2023-01-10T03:39:06;4.90;99.90
27633;DHT22;15046;50.930;13.334;2023-01-10T03:41:46;5.00;99.90
27633;DHT22;15046;50.930;13.334;2023-01-10T03:47:26;4.90;99.90
27633;DHT22;15046;50.930;13.334;2023-01-10T03:49:58;5.00;99.90
27633;DHT22;15046;50.930;13.334;2023-01-10T03:52:25;5.00;99.90
27633;DHT22;15046;50.930;13.334;2023-01-10T03:54:51;4.90;99.90
27633;DHT22;15046;50.930;13.334;2023-01-10T03:57:21;5.00;99.90
27633;DHT22;15046;50.930;13.334;2023-01-10T03:59:50;5.00;99.90
27633;DHT22;15046;50.930;13.334;2023-01-10T04:02:16;4.90;99.90
27633;DHT22;15046;50.930;13.334;2023-01-10T04:04:42;4.90;99.90
27633;DHT22;15046;50.930;13.334;2023-01-10T04:07:08;4.90;99.90
27633;DHT22;15046;50.930;13.334;2023-01-10T04:09:33;4.90;99.90
27633;DHT22;15046;50.930;13.334;2023-01-10T04:11:59;4.90;99.90
27633;DHT22;15046;50.930;13.334;2023-01-10T04:14:25;4.90;99.90
27633;DHT22;15046;50.930;13.334;2023-01-10T04:16:52;4.90;99.90
27633;DHT22;15046;50.930;13.334;2023-01-10T04:19:18;4.90;99.90
27633;DHT22;15046;50.930;13.334;2023-01-10T04:21:44;4.90;99.90
27633;DHT22;15046;50.930;13.334;2023-01-10T04:24:09;4.90;99.90
27633;DHT22;15046;50.930;13.334;2023-01-10T04:26:35;4.90;99.90
27633;DHT22;15046;50.930;13.334;2023-01-10T04:29:01;4.90;99.90
27633;DHT22;15046;50.930;13.334;2023-01-10T04:31:27;4.90;99.90
27633;DHT22;15046;50.930;13.334;2023-01-10T04:33:53;4.90;99.90
27633;DHT22;15046;50.930;13.334;2023-01-10T04:36:19;4.90;99.90
27633;DHT22;15046;50.930;13.334;2023-01-10T04:38:45;4.90;99.90
27633;DHT22;15046;50.930;13.334;2023-01-10T04:41:10;4.90;99.90
27633;DHT22;15046;50.930;13.334;2023-01-10T04:43:36;4.90;99.90
27633;DHT22;15046;50.930;13.334;2023-01-10T04:46:02;4.90;99.90
27633;DHT22;15046;50.930;13.334;2023-01-10T04:48:28;4.90;99.90
27633;DHT22;15046;50.930;13.334;2023-01-10T04:50:54;4.90;99.90
27633;DHT22;15046;50.930;13.334;2023-01-10T04:53:20;4.90;99.90
27633;DHT22;15046;50.930;13.334;2023-01-10T04:55:46;4.90;99.90
27633;DHT22;15046;50.930;13.334;2023-01-10T04:58:12;4.90;99.90
27633;DHT22;15046;50.930;13.334;2023-01-10T05:00:39;5.00;99.90
27633;DHT22;15046;50.930;13.334;2023-01-10T05:03:04;5.00;99.90
27633;DHT22;15046;50.930;13.334;2023-01-10T05:05:31;5.00;99.90
27633;DHT22;15046;50.930;13.334;2023-01-10T05:07:57;5.00;99.90
27633;DHT22;15046;50.930;13.334;2023-01-10T05:10:23;4.90;99.90
27633;DHT22;15046;50.930;13.334;2023-01-10T05:12:48;5.00;99.90
27633;DHT22;15046;50.930;13.334;2023-01-10T05:15:14;5.00;99.90
27633;DHT22;15046;50.930;13.334;2023-01-10T05:17:40;5.00;99.90
27633;DHT22;15046;50.930;13.334;2023-01-10T05:20:07;4.90;99.90
27633;DHT22;15046;50.930;13.334;2023-01-10T05:22:33;4.90;99.90
27633;DHT22;15046;50.930;13.334;2023-01-10T05:24:59;4.90;99.90
27633;DHT22;15046;50.930;13.334;2023-01-10T05:27:24;4.90;99.90
27633;DHT22;15046;50.930;13.334;2023-01-10T05:29:50;4.90;99.90
27633;DHT22;15046;50.930;13.334;2023-01-10T05:32:16;4.90;99.90
27633;DHT22;15046;50.930;13.334;2023-01-10T05:34:42;4.90;99.90
27633;DHT22;15046;50.930;13.334;2023-01-10T05:37:08;4.90;99.90
27633;DHT22;15046;50.930;13.334;2023-01-10T05:39:33;4.90;99.90
27633;DHT22;15046;50.930;13.334;2023-01-10T05:41:59;4.90;99.90
27633;DHT22;15046;50.930;13.334;2023-01-10T05:44:25;4.90;99.90
27633;DHT22;15046;50.930;13.334;2023-01-10T05:46:51;4.90;99.90
27633;DHT22;15046;50.930;13.334;2023-01-10T05:49:16;4.90;99.90
27633;DHT22;15046;50.930;13.334;2023-01-10T05:51:42;4.90;99.90
27633;DHT22;15046;50.930;13.334;2023-01-10T05:54:08;4.80;99.90
27633;DHT22;15046;50.930;13.334;2023-01-10T05:56:34;4.80;99.90
27633;DHT22;15046;50.930;13.334;2023-01-10T05:58:59;4.80;99.90
27633;DHT22;15046;50.930;13.334;2023-01-10T06:01:25;4.70;99.90
27633;DHT22;15046;50.930;13.334;2023-01-10T06:03:51;4.70;99.90
27633;DHT22;15046;50.930;13.334;2023-01-10T06:06:17;4.60;99.90
27633;DHT22;15046;50.930;13.334;2023-01-10T06:08:42;4.70;99.90
27633;DHT22;15046;50.930;13.334;2023-01-10T06:11:08;4.70;99.90
27633;DHT22;15046;50.930;13.334;2023-01-10T06:13:34;4.70;99.90
27633;DHT22;15046;50.930;13.334;2023-01-10T06:15:59;4.70;99.90
27633;DHT22;15046;50.930;13.334;2023-01-10T06:18:25;4.70;99.90
27633;DHT22;15046;50.930;13.334;2023-01-10T06:20:52;4.70;99.90
27633;DHT22;15046;50.930;13.334;2023-01-10T06:23:18;4.70;99.90
27633;DHT22;15046;50.930;13.334;2023-01-10T06:25:43;4.70;99.90
27633;DHT22;15046;50.930;13.334;2023-01-10T06:28:12;4.70;99.90
27633;DHT22;15046;50.930;13.334;2023-01-10T06:30:39;4.70;99.90
27633;DHT22;15046;50.930;13.334;2023-01-10T06:33:08;4.70;99.90
27633;DHT22;15046;50.930;13.334;2023-01-10T06:35:34;4.70;99.90
27633;DHT22;15046;50.930;13.334;2023-01-10T06:38:00;4.70;99.90
27633;DHT22;15046;50.930;13.334;2023-01-10T06:40:26;4.70;99.90
27633;DHT22;15046;50.930;13.334;2023-01-10T06:42:52;4.70;99.90
27633;DHT22;15046;50.930;13.334;2023-01-10T06:45:18;4.70;99.90
27633;DHT22;15046;50.930;13.334;2023-01-10T06:47:44;4.70;99.90
27633;DHT22;15046;50.930;13.334;2023-01-10T06:50:11;4.60;99.90
27633;DHT22;15046;50.930;13.334;2023-01-10T06:52:37;4.60;99.90
27633;DHT22;15046;50.930;13.334;2023-01-10T06:55:03;4.60;99.90
27633;DHT22;15046;50.930;13.334;2023-01-10T06:57:29;4.50;99.90
27633;DHT22;15046;50.930;13.334;2023-01-10T06:59:55;4.50;99.90
27633;DHT22;15046;50.930;13.334;2023-01-10T07:02:21;4.50;99.90
27633;DHT22;15046;50.930;13.334;2023-01-10T07:04:47;4.50;99.90
27633;DHT22;15046;50.930;13.334;2023-01-10T07:07:13;4.60;99.90
27633;DHT22;15046;50.930;13.334;2023-01-10T07:09:39;4.60;99.90
27633;DHT22;15046;50.930;13.334;2023-01-10T07:12:05;4.60;99.90
27633;DHT22;15046;50.930;13.334;2023-01-10T07:14:31;4.60;99.90
27633;DHT22;15046;50.930;13.334;2023-01-10T07:16:57;4.60;99.90
27633;DHT22;15046;50.930;13.334;2023-01-10T07:19:22;4.60;99.90
27633;DHT22;15046;50.930;13.334;2023-01-10T07:21:48;4.60;99.90
27633;DHT22;15046;50.930;13.334;2023-01-10T07:24:14;4.50;99.90
27633;DHT22;15046;50.930;13.334;2023-01-10T07:26:40;4.50;99.90
27633;DHT22;15046;50.930;13.334;2023-01-10T07:29:06;4.50;99.90
27633;DHT22;15046;50.930;13.334;2023-01-10T07:31:32;4.50;99.90
27633;DHT22;15046;50.930;13.334;2023-01-10T07:33:58;4.50;99.90
27633;DHT22;15046;50.930;13.334;2023-01-10T07:36:23;4.50;99.90
27633;DHT22;15046;50.930;13.334;2023-01-10T07:38:49;4.50;99.90
27633;DHT22;15046;50.930;13.334;2023-01-10T07:41:15;4.50;99.90
27633;DHT22;15046;50.930;13.334;2023-01-10T07:43:41;4.50;99.90
27633;DHT22;15046;50.930;13.334;2023-01-10T07:46:07;4.50;99.90
27633;DHT22;15046;50.930;13.334;2023-01-10T07:48:37;4.50;99.90
27633;DHT22;15046;50.930;13.334;2023-01-10T07:51:04;4.50;99.90
27633;DHT22;15046;50.930;13.334;2023-01-10T07:53:30;4.40;99.90
27633;DHT22;15046;50.930;13.334;2023-01-10T07:56:00;4.40;99.90
27633;DHT22;15046;50.930;13.334;2023-01-10T07:58:27;4.40;99.90
27633;DHT22;15046;50.930;13.334;2023-01-10T08:01:01;4.40;99.90
27633;DHT22;15046;50.930;13.334;2023-01-10T08:03:27;4.40;99.90
27633;DHT22;15046;50.930;13.334;2023-01-10T08:06:03;4.50;99.90
27633;DHT22;15046;50.930;13.334;2023-01-10T08:08:29;4.40;99.90
27633;DHT22;15046;50.930;13.334;2023-01-10T08:10:55;4.50;99.90
27633;DHT22;15046;50.930;13.334;2023-01-10T08:13:24;4.40;99.90
27633;DHT22;15046;50.930;13.334;2023-01-10T08:15:50;4.50;99.90
27633;DHT22;15046;50.930;13.334;2023-01-10T08:18:17;4.50;99.90
27633;DHT22;15046;50.930;13.334;2023-01-10T08:20:43;4.50;99.90
27633;DHT22;15046;50.930;13.334;2023-01-10T08:23:11;4.50;99.90
27633;DHT22;15046;50.930;13.334;2023-01-10T08:25:37;4.50;99.90
27633;DHT22;15046;50.930;13.334;2023-01-10T08:28:03;4.60;99.90
27633;DHT22;15046;50.930;13.334;2023-01-10T08:30:28;4.60;99.90
27633;DHT22;15046;50.930;13.334;2023-01-10T08:32:54;4.60;99.90
27633;DHT22;15046;50.930;13.334;2023-01-10T08:35:20;4.60;99.90
27633;DHT22;15046;50.930;13.334;2023-01-10T08:37:46;4.60;99.90
27633;DHT22;15046;50.930;13.334;2023-01-10T08:40:12;4.60;99.90
27633;DHT22;15046;50.930;13.334;2023-01-10T08:42:37;4.60;99.90
27633;DHT22;15046;50.930;13.334;2023-01-10T08:45:04;4.60;99.90
27633;DHT22;15046;50.930;13.334;2023-01-10T08:47:30;4.60;99.90
27633;DHT22;15046;50.930;13.334;2023-01-10T08:49:55;4.60;99.90
27633;DHT22;15046;50.930;13.334;2023-01-10T08:52:21;4.60;99.90
27633;DHT22;15046;50.930;13.334;2023-01-10T08:54:47;4.60;99.90
27633;DHT22;15046;50.930;13.334;2023-01-10T08:57:14;4.60;99.90
27633;DHT22;15046;50.930;13.334;2023-01-10T08:59:40;4.60;99.90
27633;DHT22;15046;50.930;13.334;2023-01-10T09:02:08;4.60;99.90
27633;DHT22;15046;50.930;13.334;2023-01-10T09:04:37;4.60;99.90
27633;DHT22;15046;50.930;13.334;2023-01-10T09:07:03;4.60;99.90
27633;DHT22;15046;50.930;13.334;2023-01-10T09:09:29;4.60;99.90
27633;DHT22;15046;50.930;13.334;2023-01-10T09:11:54;4.60;99.90
27633;DHT22;15046;50.930;13.334;2023-01-10T09:14:22;4.60;99.90
27633;DHT22;15046;50.930;13.334;2023-01-10T09:16:48;4.70;99.90
27633;DHT22;15046;50.930;13.334;2023-01-10T09:19:16;4.80;99.90
27633;DHT22;15046;50.930;13.334;2023-01-10T09:21:42;4.90;99.90
27633;DHT22;15046;50.930;13.334;2023-01-10T09:24:08;5.00;99.90
27633;DHT22;15046;50.930;13.334;2023-01-10T09:26:33;5.20;99.90
27633;DHT22;15046;50.930;13.334;2023-01-10T09:28:59;5.40;99.90
27633;DHT22;15046;50.930;13.334;2023-01-10T09:31:25;5.40;99.90
27633;DHT22;15046;50.930;13.334;2023-01-10T09:33:51;5.50;99.90
27633;DHT22;15046;50.930;13.334;2023-01-10T09:36:16;5.40;99.90
27633;DHT22;15046;50.930;13.334;2023-01-10T09:38:43;5.40;99.90
27633;DHT22;15046;50.930;13.334;2023-01-10T09:52:35;5.40;99.90
27633;DHT22;15046;50.930;13.334;2023-01-10T09:55:40;5.20;99.90
27633;DHT22;15046;50.930;13.334;2023-01-10T09:58:14;5.20;99.90
27633;DHT22;15046;50.930;13.334;2023-01-10T10:01:00;5.20;99.90
27633;DHT22;15046;50.930;13.334;2023-01-10T10:06:13;5.20;99.90
27633;DHT22;15046;50.930;13.334;2023-01-10T10:08:41;5.20;99.90
27633;DHT22;15046;50.930;13.334;2023-01-10T10:14:30;5.30;99.90
27633;DHT22;15046;50.930;13.334;2023-01-10T10:36:10;5.60;99.90
27633;DHT22;15046;50.930;13.334;2023-01-10T10:38:41;5.60;99.90
27633;DHT22;15046;50.930;13.334;2023-01-10T10:41:23;5.70;99.90
27633;DHT22;15046;50.930;13.334;2023-01-10T10:43:51;5.80;99.90
27633;DHT22;15046;50.930;13.334;2023-01-10T10:46:18;5.90;99.90
27633;DHT22;15046;50.930;13.334;2023-01-10T10:49:00;5.90;99.90
27633;DHT22;15046;50.930;13.334;2023-01-10T10:51:49;5.90;99.90
27633;DHT22;15046;50.930;13.334;2023-01-10T10:54:15;5.80;99.90
27633;DHT22;15046;50.930;13.334;2023-01-10T10:56:42;5.80;99.90
27633;DHT22;15046;50.930;13.334;2023-01-10T10:59:09;5.80;99.90
27633;DHT22;15046;50.930;13.334;2023-01-10T11:01:37;5.80;99.90
27633;DHT22;15046;50.930;13.334;2023-01-10T11:04:12;5.90;99.90
27633;DHT22;15046;50.930;13.334;2023-01-10T11:06:40;5.90;99.90
27633;DHT22;15046;50.930;13.334;2023-01-10T11:09:18;5.90;99.90
27633;DHT22;15046;50.930;13.334;2023-01-10T11:12:12;5.80;99.90
27633;DHT22;15046;50.930;13.334;2023-01-10T11:14:50;5.80;99.90
27633;DHT22;15046;50.930;13.334;2023-01-10T11:17:24;5.80;99.90
27633;DHT22;15046;50.930;13.334;2023-01-10T11:20:15;5.80;99.90
27633;DHT22;15046;50.930;13.334;2023-01-10T11:22:48;5.70;99.90
27633;DHT22;15046;50.930;13.334;2023-01-10T11:25:16;5.70;99.90
27633;DHT22;15046;50.930;13.334;2023-01-10T11:27:49;5.70;99.90
27633;DHT22;15046;50.930;13.334;2023-01-10T11:30:22;5.70;99.90
27633;DHT22;15046;50.930;13.334;2023-01-10T11:35:29;5.60;99.90
27633;DHT22;15046;50.930;13.334;2023-01-10T11:38:18;5.70;99.90
27633;DHT22;15046;50.930;13.334;2023-01-10T11:43:44;5.80;99.90
27633;DHT22;15046;50.930;13.334;2023-01-10T11:46:18;5.80;99.90
27633;DHT22;15046;50.930;13.334;2023-01-10T11:49:03;5.80;99.90
27633;DHT22;15046;50.930;13.334;2023-01-10T11:51:43;5.80;99.90
27633;DHT22;15046;50.930;13.334;2023-01-10T11:54:10;5.80;99.90
27633;DHT22;15046;50.930;13.334;2023-01-10T11:56:37;5.80;99.90
27633;DHT22;15046;50.930;13.334;2023-01-10T11:59:15;5.80;99.90
27633;DHT22;15046;50.930;13.334;2023-01-10T12:02:16;5.80;99.90
27633;DHT22;15046;50.930;13.334;2023-01-10T12:04:45;5.90;99.90
27633;DHT22;15046;50.930;13.334;2023-01-10T12:07:12;6.10;99.90
27633;DHT22;15046;50.930;13.334;2023-01-10T12:09:43;6.30;99.90
27633;DHT22;15046;50.930;13.334;2023-01-10T12:12:24;6.30;99.90
27633;DHT22;15046;50.930;13.334;2023-01-10T12:14:52;6.50;99.90
27633;DHT22;15046;50.930;13.334;2023-01-10T12:17:23;6.70;99.90
27633;DHT22;15046;50.930;13.334;2023-01-10T12:19:51;6.90;99.90
27633;DHT22;15046;50.930;13.334;2023-01-10T12:22:28;7.00;99.90
27633;DHT22;15046;50.930;13.334;2023-01-10T12:24:57;7.00;99.90
27633;DHT22;15046;50.930;13.334;2023-01-10T12:27:24;6.90;99.90
27633;DHT22;15046;50.930;13.334;2023-01-10T12:30:20;6.80;99.90
27633;DHT22;15046;50.930;13.334;2023-01-10T12:32:51;6.90;99.90
27633;DHT22;15046;50.930;13.334;2023-01-10T12:35:42;6.90;99.90
27633;DHT22;15046;50.930;13.334;2023-01-10T12:38:20;6.90;99.90
27633;DHT22;15046;50.930;13.334;2023-01-10T12:41:08;6.90;99.90
27633;DHT22;15046;50.930;13.334;2023-01-10T12:43:39;6.70;99.90
27633;DHT22;15046;50.930;13.334;2023-01-10T12:46:32;6.60;99.90
27633;DHT22;15046;50.930;13.334;2023-01-10T12:49:13;6.50;99.90
27633;DHT22;15046;50.930;13.334;2023-01-10T12:51:41;6.40;99.90
27633;DHT22;15046;50.930;13.334;2023-01-10T12:54:17;6.40;99.90
27633;DHT22;15046;50.930;13.334;2023-01-10T12:56:45;6.30;99.90
27633;DHT22;15046;50.930;13.334;2023-01-10T12:59:24;6.40;99.90
27633;DHT22;15046;50.930;13.334;2023-01-10T13:01:57;6.30;99.90
27633;DHT22;15046;50.930;13.334;2023-01-10T13:04:30;6.40;99.90
27633;DHT22;15046;50.930;13.334;2023-01-10T13:07:00;6.40;99.90
27633;DHT22;15046;50.930;13.334;2023-01-10T13:09:28;6.40;99.90
27633;DHT22;15046;50.930;13.334;2023-01-10T13:22:48;6.40;99.90
27633;DHT22;15046;50.930;13.334;2023-01-10T13:25:36;6.30;99.90
27633;DHT22;15046;50.930;13.334;2023-01-10T13:28:04;6.30;99.90
27633;DHT22;15046;50.930;13.334;2023-01-10T13:30:33;6.30;99.90
27633;DHT22;15046;50.930;13.334;2023-01-10T13:35:47;6.30;99.90
27633;DHT22;15046;50.930;13.334;2023-01-10T13:38:38;6.30;99.90
27633;DHT22;15046;50.930;13.334;2023-01-10T13:41:09;6.30;99.90
27633;DHT22;15046;50.930;13.334;2023-01-10T13:44:06;6.30;99.90
27633;DHT22;15046;50.930;13.334;2023-01-10T13:51:38;6.30;99.90
27633;DHT22;15046;50.930;13.334;2023-01-10T13:56:44;6.30;99.90
27633;DHT22;15046;50.930;13.334;2023-01-10T14:02:24;6.30;99.90
27633;DHT22;15046;50.930;13.334;2023-01-10T14:05:06;6.20;99.90
27633;DHT22;15046;50.930;13.334;2023-01-10T14:07:46;6.20;99.90
27633;DHT22;15046;50.930;13.334;2023-01-10T14:10:38;6.20;99.90
27633;DHT22;15046;50.930;13.334;2023-01-10T14:13:06;6.20;99.90
27633;DHT22;15046;50.930;13.334;2023-01-10T14:15:43;6.20;99.90
27633;DHT22;15046;50.930;13.334;2023-01-10T14:18:32;6.20;99.90
27633;DHT22;15046;50.930;13.334;2023-01-10T14:21:01;6.20;99.90
27633;DHT22;15046;50.930;13.334;2023-01-10T14:26:03;6.20;99.90
27633;DHT22;15046;50.930;13.334;2023-01-10T14:28:32;6.20;99.90
27633;DHT22;15046;50.930;13.334;2023-01-10T14:33:36;6.00;99.90
27633;DHT22;15046;50.930;13.334;2023-01-10T14:36:15;6.00;99.90
27633;DHT22;15046;50.930;13.334;2023-01-10T14:38:44;6.00;99.90
27633;DHT22;15046;50.930;13.334;2023-01-10T14:41:20;6.00;99.90
27633;DHT22;15046;50.930;13.334;2023-01-10T14:44:01;6.00;99.90
27633;DHT22;15046;50.930;13.334;2023-01-10T14:46:46;5.90;99.90
27633;DHT22;15046;50.930;13.334;2023-01-10T14:49:22;5.80;99.90
27633;DHT22;15046;50.930;13.334;2023-01-10T14:51:48;5.70;99.90
27633;DHT22;15046;50.930;13.334;2023-01-10T14:54:17;5.70;99.90
27633;DHT22;15046;50.930;13.334;2023-01-10T14:56:51;5.60;99.90
27633;DHT22;15046;50.930;13.334;2023-01-10T14:59:31;5.60;99.90
27633;DHT22;15046;50.930;13.334;2023-01-10T15:02:20;5.60;99.90
27633;DHT22;15046;50.930;13.334;2023-01-10T15:05:23;5.60;99.90
27633;DHT22;15046;50.930;13.334;2023-01-10T15:07:48;5.60;99.90
27633;DHT22;15046;50.930;13.334;2023-01-10T15:10:23;5.60;99.90
27633;DHT22;15046;50.930;13.334;2023-01-10T15:12:56;5.50;99.90
27633;DHT22;15046;50.930;13.334;2023-01-10T15:15:32;5.50;99.90
27633;DHT22;15046;50.930;13.334;2023-01-10T15:18:00;5.60;99.90
27633;DHT22;15046;50.930;13.334;2023-01-10T15:20:27;5.60;99.90
27633;DHT22;15046;50.930;13.334;2023-01-10T15:22:56;5.60;99.90
27633;DHT22;15046;50.930;13.334;2023-01-10T15:25:35;5.60;99.90
27633;DHT22;15046;50.930;13.334;2023-01-10T15:28:16;5.60;99.90
27633;DHT22;15046;50.930;13.334;2023-01-10T15:30:42;5.60;99.90
27633;DHT22;15046;50.930;13.334;2023-01-10T15:33:13;5.60;99.90
27633;DHT22;15046;50.930;13.334;2023-01-10T15:35:40;5.60;99.90
27633;DHT22;15046;50.930;13.334;2023-01-10T15:38:16;5.60;99.90
27633;DHT22;15046;50.930;13.334;2023-01-10T15:40:45;5.60;99.90
27633;DHT22;15046;50.930;13.334;2023-01-10T15:43:26;5.60;99.90
27633;DHT22;15046;50.930;13.334;2023-01-10T15:45:53;5.60;99.90
27633;DHT22;15046;50.930;13.334;2023-01-10T15:48:33;5.60;99.90
27633;DHT22;15046;50.930;13.334;2023-01-10T15:57:13;5.60;99.90
27633;DHT22;15046;50.930;13.334;2023-01-10T15:59:46;5.60;99.90
27633;DHT22;15046;50.930;13.334;2023-01-10T16:02:22;5.60;99.90
27633;DHT22;15046;50.930;13.334;2023-01-10T16:05:05;5.60;99.90
27633;DHT22;15046;50.930;13.334;2023-01-10T16:07:33;5.60;99.90
27633;DHT22;15046;50.930;13.334;2023-01-10T16:10:18;5.60;99.90
27633;DHT22;15046;50.930;13.334;2023-01-10T16:12:44;5.60;99.90
27633;DHT22;15046;50.930;13.334;2023-01-10T16:15:31;5.60;99.90
27633;DHT22;15046;50.930;13.334;2023-01-10T16:17:57;5.60;99.90
27633;DHT22;15046;50.930;13.334;2023-01-10T16:20:29;5.60;99.90
27633;DHT22;15046;50.930;13.334;2023-01-10T16:22:57;5.60;99.90
27633;DHT22;15046;50.930;13.334;2023-01-10T16:25:32;5.60;99.90
27633;DHT22;15046;50.930;13.334;2023-01-10T16:27:59;5.60;99.90
27633;DHT22;15046;50.930;13.334;2023-01-10T16:30:27;5.60;99.90
27633;DHT22;15046;50.930;13.334;2023-01-10T16:32:54;5.60;99.90
27633;DHT22;15046;50.930;13.334;2023-01-10T16:35:22;5.60;99.90
27633;DHT22;15046;50.930;13.334;2023-01-10T16:37:49;5.60;99.90
27633;DHT22;15046;50.930;13.334;2023-01-10T16:40:28;5.60;99.90
27633;DHT22;15046;50.930;13.334;2023-01-10T16:42:57;5.60;99.90
27633;DHT22;15046;50.930;13.334;2023-01-10T16:45:41;5.60;99.90
27633;DHT22;15046;50.930;13.334;2023-01-10T16:48:08;5.60;99.90
27633;DHT22;15046;50.930;13.334;2023-01-10T16:50:34;5.60;99.90
27633;DHT22;15046;50.930;13.334;2023-01-10T16:53:00;5.50;99.90
27633;DHT22;15046;50.930;13.334;2023-01-10T16:58:03;5.50;99.90
27633;DHT22;15046;50.930;13.334;2023-01-10T17:00:29;5.50;99.90
27633;DHT22;15046;50.930;13.334;2023-01-10T17:02:56;5.50;99.90
27633;DHT22;15046;50.930;13.334;2023-01-10T17:05:22;5.40;99.90
27633;DHT22;15046;50.930;13.334;2023-01-10T17:07:48;5.40;99.90
27633;DHT22;15046;50.930;13.334;2023-01-10T17:10:13;5.40;99.90
27633;DHT22;15046;50.930;13.334;2023-01-10T17:12:40;5.40;99.90
27633;DHT22;15046;50.930;13.334;2023-01-10T17:15:11;5.30;99.90
27633;DHT22;15046;50.930;13.334;2023-01-10T17:17:37;5.30;99.90
27633;DHT22;15046;50.930;13.334;2023-01-10T17:20:03;5.20;99.90
27633;DHT22;15046;50.930;13.334;2023-01-10T17:22:30;5.20;99.90
27633;DHT22;15046;50.930;13.334;2023-01-10T17:24:56;5.10;99.90
27633;DHT22;15046;50.930;13.334;2023-01-10T17:27:22;5.00;99.90
27633;DHT22;15046;50.930;13.334;2023-01-10T17:29:48;4.90;99.90
27633;DHT22;15046;50.930;13.334;2023-01-10T17:32:13;4.80;99.90
27633;DHT22;15046;50.930;13.334;2023-01-10T17:34:39;4.80;99.90
27633;DHT22;15046;50.930;13.334;2023-01-10T17:37:05;4.70;99.90
27633;DHT22;15046;50.930;13.334;2023-01-10T17:39:30;4.60;99.90
27633;DHT22;15046;50.930;13.334;2023-01-10T17:41:56;4.50;99.90